sensor_id;sensor_type;location;lat;lon;timestamp;pressure;altitude;pressure_sealevel;temperature;humidity
31585;BME280;18191;51.288;12.390;2022-10-04T00:03:33;49183.91;;;-144.47;78.17
31585;BME280;18191;51.288;12.390;2022-10-04T00:13:21;49167.97;;;-144.47;79.51
31585;BME280;18191;51.288;12.390;2022-10-04T00:33:10;49175.94;;;-144.47;81.74
31585;BME280;18191;51.288;12.390;2022-10-04T00:38:01;49136.16;;;-144.47;83.10
31585;BME280;18191;51.288;12.390;2022-10-04T00:43:01;49158.03;;;-144.47;83.95
31585;BME280;18191;51.288;12.390;2022-10-04T00:52:59;49152.06;;;-144.47;83.73
31585;BME280;18191;51.288;12.390;2022-10-04T00:57:51;49124.22;;;-144.47;83.16
31585;BME280;18191;51.288;12.390;2022-10-04T01:07:54;49142.13;;;-144.47;80.75
31585;BME280;18191;51.288;12.390;2022-10-04T01:12:56;49150.06;;;-144.47;80.97
31585;BME280;18191;51.288;12.390;2022-10-04T01:22:58;49160.03;;;-144.47;82.45
31585;BME280;18191;51.288;12.390;2022-10-04T01:27:49;49148.09;;;-144.47;81.61
31585;BME280;18191;51.288;12.390;2022-10-04T01:32:39;49134.16;;;-144.47;82.34
31585;BME280;18191;51.288;12.390;2022-10-04T01:37:29;49164.00;;;-144.47;82.26
31585;BME280;18191;51.288;12.390;2022-10-04T01:42:25;49122.22;;;-144.47;80.95
31585;BME280;18191;51.288;12.390;2022-10-04T01:47:27;49140.13;;;-144.47;81.61
31585;BME280;18191;51.288;12.390;2022-10-04T01:52:25;49152.06;;;-144.47;81.30
31585;BME280;18191;51.288;12.390;2022-10-04T01:57:22;49098.34;;;-144.47;81.00
31585;BME280;18191;51.288;12.390;2022-10-04T02:02:17;49144.09;;;-144.47;82.09
31585;BME280;18191;51.288;12.390;2022-10-04T02:07:10;49148.09;;;-144.47;82.39
31585;BME280;18191;51.288;12.390;2022-10-04T02:12:01;49054.59;;;-144.47;81.34
31585;BME280;18191;51.288;12.390;2022-10-04T02:16:51;49120.25;;;-144.47;81.32
31585;BME280;18191;51.288;12.390;2022-10-04T02:21:43;49164.00;;;-144.47;81.63
31585;BME280;18191;51.288;12.390;2022-10-04T02:26:33;49130.19;;;-144.47;83.23
31585;BME280;18191;51.288;12.390;2022-10-04T02:31:23;49179.91;;;-144.47;84.07
31585;BME280;18191;51.288;12.390;2022-10-04T02:36:34;49154.06;;;-144.47;84.02
31585;BME280;18191;51.288;12.390;2022-10-04T02:41:26;49171.97;;;-144.47;84.43
31585;BME280;18191;51.288;12.390;2022-10-04T02:56:36;49130.19;;;-144.47;86.35
31585;BME280;18191;51.288;12.390;2022-10-04T03:01:27;49136.16;;;-144.47;87.56
31585;BME280;18191;51.288;12.390;2022-10-04T03:06:19;49171.97;;;-144.47;88.35
31585;BME280;18191;51.288;12.390;2022-10-04T03:11:09;49120.25;;;-144.47;88.23
31585;BME280;18191;51.288;12.390;2022-10-04T03:16:00;49156.03;;;-144.47;88.50
31585;BME280;18191;51.288;12.390;2022-10-04T03:20:51;49152.06;;;-144.47;88.95
31585;BME280;18191;51.288;12.390;2022-10-04T03:25:48;49138.16;;;-144.47;89.05
31585;BME280;18191;51.288;12.390;2022-10-04T03:30:41;49162.00;;;-144.47;89.17
31585;BME280;18191;51.288;12.390;2022-10-04T03:35:36;49164.00;;;-144.47;88.72
31585;BME280;18191;51.288;12.390;2022-10-04T03:40:29;49152.06;;;-144.47;89.63
31585;BME280;18191;51.288;12.390;2022-10-04T03:45:20;49152.06;;;-144.47;89.43
31585;BME280;18191;51.288;12.390;2022-10-04T03:50:15;49150.06;;;-144.47;89.82
31585;BME280;18191;51.288;12.390;2022-10-04T03:55:09;49146.09;;;-144.47;88.76
31585;BME280;18191;51.288;12.390;2022-10-04T04:00:03;49183.91;;;-144.47;90.01
31585;BME280;18191;51.288;12.390;2022-10-04T04:10:04;49156.03;;;-144.47;90.53
31585;BME280;18191;51.288;12.390;2022-10-04T04:14:59;49148.09;;;-144.47;90.80
31585;BME280;18191;51.288;12.390;2022-10-04T04:19:50;49193.84;;;-144.47;91.32
31585;BME280;18191;51.288;12.390;2022-10-04T04:24:41;49167.97;;;-144.47;91.92
31585;BME280;18191;51.288;12.390;2022-10-04T04:29:35;49179.91;;;-144.47;91.93
31585;BME280;18191;51.288;12.390;2022-10-04T04:34:32;49171.97;;;-144.47;91.72
31585;BME280;18191;51.288;12.390;2022-10-04T04:39:23;49191.84;;;-144.47;91.44
31585;BME280;18191;51.288;12.390;2022-10-04T04:44:23;49197.81;;;-144.47;91.91
31585;BME280;18191;51.288;12.390;2022-10-04T04:49:14;49175.94;;;-144.47;92.53
31585;BME280;18191;51.288;12.390;2022-10-04T04:54:05;49132.16;;;-144.47;91.71
31585;BME280;18191;51.288;12.390;2022-10-04T04:58:56;49124.22;;;-144.47;92.15
31585;BME280;18191;51.288;12.390;2022-10-04T05:04:04;49140.13;;;-144.47;93.26
31585;BME280;18191;51.288;12.390;2022-10-04T05:08:54;49160.03;;;-144.47;93.36
31585;BME280;18191;51.288;12.390;2022-10-04T05:13:49;49146.09;;;-144.47;93.18
31585;BME280;18191;51.288;12.390;2022-10-04T05:18:41;49156.03;;;-144.47;92.41
31585;BME280;18191;51.288;12.390;2022-10-04T05:23:32;49162.00;;;-144.47;91.49
31585;BME280;18191;51.288;12.390;2022-10-04T05:28:23;49183.91;;;-144.47;91.81
31585;BME280;18191;51.288;12.390;2022-10-04T05:33:17;49164.00;;;-144.47;91.29
31585;BME280;18191;51.288;12.390;2022-10-04T05:43:18;49148.09;;;-144.47;89.71
31585;BME280;18191;51.288;12.390;2022-10-04T05:48:11;49144.09;;;-144.47;88.85
31585;BME280;18191;51.288;12.390;2022-10-04T05:53:22;49167.97;;;-144.47;88.18
31585;BME280;18191;51.288;12.390;2022-10-04T05:58:19;49205.78;;;-144.47;87.57
31585;BME280;18191;51.288;12.390;2022-10-04T06:03:21;49138.16;;;-144.47;85.75
31585;BME280;18191;51.288;12.390;2022-10-04T06:08:33;49162.00;;;-144.47;85.33
31585;BME280;18191;51.288;12.390;2022-10-04T06:18:47;49171.97;;;-144.47;84.23
31585;BME280;18191;51.288;12.390;2022-10-04T06:23:53;49120.25;;;-144.47;83.66
31585;BME280;18191;51.288;12.390;2022-10-04T06:28:47;49118.25;;;-144.47;82.18
31585;BME280;18191;51.288;12.390;2022-10-04T07:04:35;49187.88;;;-144.47;76.82
31585;BME280;18191;51.288;12.390;2022-10-04T07:09:26;49130.19;;;-144.47;75.28
31585;BME280;18191;51.288;12.390;2022-10-04T07:14:18;49140.13;;;-144.47;73.49
31585;BME280;18191;51.288;12.390;2022-10-04T07:24:09;49118.25;;;-144.47;72.82
31585;BME280;18191;51.288;12.390;2022-10-04T07:29:02;49114.28;;;-144.47;71.33
31585;BME280;18191;51.288;12.390;2022-10-04T07:34:12;49114.28;;;-144.47;70.09
31585;BME280;18191;51.288;12.390;2022-10-04T07:40:05;49140.13;;;-144.47;68.85
31585;BME280;18191;51.288;12.390;2022-10-04T07:44:32;49160.03;;;-144.47;67.31
31585;BME280;18191;51.288;12.390;2022-10-04T07:49:24;49132.16;;;-144.47;68.11
31585;BME280;18191;51.288;12.390;2022-10-04T07:54:21;49152.06;;;-144.47;67.00
31585;BME280;18191;51.288;12.390;2022-10-04T08:19:06;49084.44;;;-144.47;66.54
31585;BME280;18191;51.288;12.390;2022-10-04T08:28:53;49152.06;;;-144.47;66.16
31585;BME280;18191;51.288;12.390;2022-10-04T08:34:10;49164.00;;;-144.47;64.25
31585;BME280;18191;51.288;12.390;2022-10-04T08:39:05;49112.28;;;-144.47;63.69
31585;BME280;18191;51.288;12.390;2022-10-04T08:54:10;49104.31;;;-144.47;63.15
31585;BME280;18191;51.288;12.390;2022-10-04T09:19:50;49124.22;;;-144.47;61.13
31585;BME280;18191;51.288;12.390;2022-10-04T09:39:39;49152.06;;;-144.47;58.64
31585;BME280;18191;51.288;12.390;2022-10-04T09:45:18;49116.25;;;-144.47;58.76
31585;BME280;18191;51.288;12.390;2022-10-04T09:59:51;49082.44;;;-144.47;58.46
31585;BME280;18191;51.288;12.390;2022-10-04T10:15:12;49126.22;;;-144.47;56.14
31585;BME280;18191;51.288;12.390;2022-10-04T10:49:52;49112.28;;;-144.47;51.82
31585;BME280;18191;51.288;12.390;2022-10-04T11:15:04;49108.31;;;-144.47;47.95
31585;BME280;18191;51.288;12.390;2022-10-04T11:25:22;49104.31;;;-144.47;49.26
31585;BME280;18191;51.288;12.390;2022-10-04T11:30:19;49124.22;;;-144.47;48.48
31585;BME280;18191;51.288;12.390;2022-10-04T11:35:25;49120.25;;;-144.47;47.92
31585;BME280;18191;51.288;12.390;2022-10-04T11:45:26;49092.38;;;-144.47;44.29
31585;BME280;18191;51.288;12.390;2022-10-04T11:55:34;49104.31;;;-144.47;45.53
31585;BME280;18191;51.288;12.390;2022-10-04T12:00:43;49072.50;;;-144.47;43.30
31585;BME280;18191;51.288;12.390;2022-10-04T12:10:39;49090.41;;;-144.47;42.40
31585;BME280;18191;51.288;12.390;2022-10-04T12:20:42;49112.28;;;-144.47;43.41
31585;BME280;18191;51.288;12.390;2022-10-04T12:30:42;49086.41;;;-144.47;42.54
31585;BME280;18191;51.288;12.390;2022-10-04T12:50:40;49104.31;;;-144.47;43.02
31585;BME280;18191;51.288;12.390;2022-10-04T12:55:53;49092.38;;;-144.47;43.25
31585;BME280;18191;51.288;12.390;2022-10-04T13:00:46;49104.31;;;-144.47;42.34
31585;BME280;18191;51.288;12.390;2022-10-04T13:15:50;49116.25;;;-144.47;40.93
31585;BME280;18191;51.288;12.390;2022-10-04T13:20:49;49118.25;;;-144.47;40.02
31585;BME280;18191;51.288;12.390;2022-10-04T13:25:55;49072.50;;;-144.47;41.66
31585;BME280;18191;51.288;12.390;2022-10-04T13:30:48;49108.31;;;-144.47;40.53
31585;BME280;18191;51.288;12.390;2022-10-04T13:35:46;49100.34;;;-144.47;41.62
31585;BME280;18191;51.288;12.390;2022-10-04T14:26:41;49048.63;;;-144.47;43.77
31585;BME280;18191;51.288;12.390;2022-10-04T14:57:16;49064.53;;;-144.47;44.20
31585;BME280;18191;51.288;12.390;2022-10-04T15:07:17;49068.50;;;-144.47;45.05
31585;BME280;18191;51.288;12.390;2022-10-04T15:12:38;49128.19;;;-144.47;44.42
31585;BME280;18191;51.288;12.390;2022-10-04T15:17:27;49096.38;;;-144.47;44.25
31585;BME280;18191;51.288;12.390;2022-10-04T15:22:21;49096.38;;;-144.47;43.79
31585;BME280;18191;51.288;12.390;2022-10-04T15:37:18;49056.59;;;-144.47;46.66
31585;BME280;18191;51.288;12.390;2022-10-04T15:52:10;49124.22;;;-144.47;48.94
31585;BME280;18191;51.288;12.390;2022-10-04T15:57:16;49108.31;;;-144.47;50.45
31585;BME280;18191;51.288;12.390;2022-10-04T16:22:28;49110.28;;;-144.47;58.21
31585;BME280;18191;51.288;12.390;2022-10-04T16:32:16;49124.22;;;-144.47;58.84
31585;BME280;18191;51.288;12.390;2022-10-04T16:42:00;49116.25;;;-144.47;61.08
31585;BME280;18191;51.288;12.390;2022-10-04T16:46:52;49136.16;;;-144.47;61.67
31585;BME280;18191;51.288;12.390;2022-10-04T17:22:14;49104.31;;;-144.47;71.33
31585;BME280;18191;51.288;12.390;2022-10-04T17:32:11;49086.41;;;-144.47;72.87
31585;BME280;18191;51.288;12.390;2022-10-04T17:47:03;49096.38;;;-144.47;74.55
31585;BME280;18191;51.288;12.390;2022-10-04T17:51:55;49112.28;;;-144.47;75.25
31585;BME280;18191;51.288;12.390;2022-10-04T17:57:11;49080.44;;;-144.47;75.72
31585;BME280;18191;51.288;12.390;2022-10-04T18:02:27;49102.34;;;-144.47;76.63
31585;BME280;18191;51.288;12.390;2022-10-04T18:07:15;49136.16;;;-144.47;77.56
31585;BME280;18191;51.288;12.390;2022-10-04T18:12:11;49096.38;;;-144.47;77.96
31585;BME280;18191;51.288;12.390;2022-10-04T18:17:04;49122.22;;;-144.47;78.08
31585;BME280;18191;51.288;12.390;2022-10-04T18:21:55;49124.22;;;-144.47;78.87
31585;BME280;18191;51.288;12.390;2022-10-04T18:26:53;49126.22;;;-144.47;78.65
31585;BME280;18191;51.288;12.390;2022-10-04T18:31:47;49090.41;;;-144.47;78.91
31585;BME280;18191;51.288;12.390;2022-10-04T18:37:15;49134.16;;;-144.47;78.46
31585;BME280;18191;51.288;12.390;2022-10-04T18:42:06;49118.25;;;-144.47;77.74
31585;BME280;18191;51.288;12.390;2022-10-04T18:47:11;49080.44;;;-144.47;77.33
31585;BME280;18191;51.288;12.390;2022-10-04T18:57:04;49118.25;;;-144.47;77.70
31585;BME280;18191;51.288;12.390;2022-10-04T19:07:13;49106.31;;;-144.47;78.29
31585;BME280;18191;51.288;12.390;2022-10-04T19:12:05;49102.34;;;-144.47;78.89
31585;BME280;18191;51.288;12.390;2022-10-04T19:17:02;49114.28;;;-144.47;78.91
31585;BME280;18191;51.288;12.390;2022-10-04T19:22:02;49096.38;;;-144.47;79.74
31585;BME280;18191;51.288;12.390;2022-10-04T19:27:04;49108.31;;;-144.47;80.31
31585;BME280;18191;51.288;12.390;2022-10-04T19:32:03;49106.31;;;-144.47;81.43
31585;BME280;18191;51.288;12.390;2022-10-04T19:36:57;49128.19;;;-144.47;82.00
31585;BME280;18191;51.288;12.390;2022-10-04T19:46:55;49142.13;;;-144.47;82.75
31585;BME280;18191;51.288;12.390;2022-10-04T19:51:52;49114.28;;;-144.47;83.21
31585;BME280;18191;51.288;12.390;2022-10-04T19:56:46;49114.28;;;-144.47;83.39
31585;BME280;18191;51.288;12.390;2022-10-04T20:01:37;49132.16;;;-144.47;83.55
31585;BME280;18191;51.288;12.390;2022-10-04T20:06:28;49164.00;;;-144.47;83.84
31585;BME280;18191;51.288;12.390;2022-10-04T20:11:25;49104.31;;;-144.47;84.35
31585;BME280;18191;51.288;12.390;2022-10-04T20:16:38;49132.16;;;-144.47;84.79
31585;BME280;18191;51.288;12.390;2022-10-04T20:21:27;49122.22;;;-144.47;84.86
31585;BME280;18191;51.288;12.390;2022-10-04T20:31:51;49116.25;;;-144.47;85.42
31585;BME280;18191;51.288;12.390;2022-10-04T20:46:48;49128.19;;;-144.47;86.41
31585;BME280;18191;51.288;12.390;2022-10-04T20:51:46;49100.34;;;-144.47;86.63
31585;BME280;18191;51.288;12.390;2022-10-04T20:56:37;49146.09;;;-144.47;86.90
31585;BME280;18191;51.288;12.390;2022-10-04T21:01:28;49140.13;;;-144.47;87.15
31585;BME280;18191;51.288;12.390;2022-10-04T21:06:22;49116.25;;;-144.47;87.40
31585;BME280;18191;51.288;12.390;2022-10-04T21:11:17;49140.13;;;-144.47;87.49
31585;BME280;18191;51.288;12.390;2022-10-04T21:16:07;49116.25;;;-144.47;87.54
31585;BME280;18191;51.288;12.390;2022-10-04T21:20:58;49128.19;;;-144.47;87.92
31585;BME280;18191;51.288;12.390;2022-10-04T21:25:48;49160.03;;;-144.47;88.15
31585;BME280;18191;51.288;12.390;2022-10-04T21:30:38;49116.25;;;-144.47;88.69
31585;BME280;18191;51.288;12.390;2022-10-04T21:35:29;49116.25;;;-144.47;88.53
31585;BME280;18191;51.288;12.390;2022-10-04T21:40:19;49100.34;;;-144.47;88.63
31585;BME280;18191;51.288;12.390;2022-10-04T21:45:09;49108.31;;;-144.47;89.10
31585;BME280;18191;51.288;12.390;2022-10-04T21:49:59;49138.16;;;-144.47;88.75
31585;BME280;18191;51.288;12.390;2022-10-04T21:54:49;49120.25;;;-144.47;89.17
31585;BME280;18191;51.288;12.390;2022-10-04T21:59:40;49140.13;;;-144.47;88.66
31585;BME280;18191;51.288;12.390;2022-10-04T22:04:30;49134.16;;;-144.47;88.99
31585;BME280;18191;51.288;12.390;2022-10-04T22:09:20;49136.16;;;-144.47;88.93
31585;BME280;18191;51.288;12.390;2022-10-04T22:14:10;49104.31;;;-144.47;89.06
31585;BME280;18191;51.288;12.390;2022-10-04T22:19:00;49144.09;;;-144.47;88.96
31585;BME280;18191;51.288;12.390;2022-10-04T22:23:51;49116.25;;;-144.47;89.38
31585;BME280;18191;51.288;12.390;2022-10-04T22:28:52;49124.22;;;-144.47;89.17
31585;BME280;18191;51.288;12.390;2022-10-04T22:33:43;49092.38;;;-144.47;89.28
31585;BME280;18191;51.288;12.390;2022-10-04T22:38:33;49104.31;;;-144.47;89.12
31585;BME280;18191;51.288;12.390;2022-10-04T22:43:24;49134.16;;;-144.47;89.21
31585;BME280;18191;51.288;12.390;2022-10-04T22:48:14;49144.09;;;-144.47;90.33
31585;BME280;18191;51.288;12.390;2022-10-04T22:53:11;49148.09;;;-144.47;90.46
31585;BME280;18191;51.288;12.390;2022-10-04T22:58:02;49120.25;;;-144.47;90.06
31585;BME280;18191;51.288;12.390;2022-10-04T23:02:53;49140.13;;;-144.47;91.09
31585;BME280;18191;51.288;12.390;2022-10-04T23:07:44;49134.16;;;-144.47;90.93
31585;BME280;18191;51.288;12.390;2022-10-04T23:12:35;49102.34;;;-144.47;90.84
31585;BME280;18191;51.288;12.390;2022-10-04T23:17:29;49092.38;;;-144.47;90.96
31585;BME280;18191;51.288;12.390;2022-10-04T23:22:21;49122.22;;;-144.47;91.05
31585;BME280;18191;51.288;12.390;2022-10-04T23:27:15;49104.31;;;-144.47;91.07
31585;BME280;18191;51.288;12.390;2022-10-04T23:32:13;49124.22;;;-144.47;91.15
31585;BME280;18191;51.288;12.390;2022-10-04T23:37:09;49126.22;;;-144.47;91.34
31585;BME280;18191;51.288;12.390;2022-10-04T23:42:05;49144.09;;;-144.47;91.32
31585;BME280;18191;51.288;12.390;2022-10-04T23:47:01;49120.25;;;-144.47;90.93
31585;BME280;18191;51.288;12.390;2022-10-04T23:51:53;49132.16;;;-144.47;91.16
31585;BME280;18191;51.288;12.390;2022-10-04T23:56:45;49102.34;;;-144.47;91.79
